Time;durP1;ratioP1;P1;durP2;ratioP2;P2;SDS_P1;SDS_P2;PMS_P1;PMS_P2;Temp;Humidity;BMP_temperature;BMP_pressure;BME280_temperature;BME280_humidity;BME280_pressure;Samples;Min_cycle;Max_cycle;Signal;HPM_P1;HPM_P2
2023/01/02 00:02:26;;;;;;;17.05;5.18;;;13.20;99.90;;;;;;5053255;28;20202;-77
2023/01/02 00:04:52;;;;;;;13.80;5.35;;;13.20;99.90;;;;;;5048592;28;20053;-77
2023/01/02 00:07:18;;;;;;;13.38;5.40;;;13.10;99.90;;;;;;5051264;28;20067;-77
2023/01/02 00:09:44;;;;;;;16.23;5.60;;;13.20;99.90;;;;;;5052670;28;20025;-77
2023/01/02 00:12:09;;;;;;;21.10;5.95;;;13.20;99.90;;;;;;5052352;28;20021;-77
2023/01/02 00:14:35;;;;;;;16.15;5.00;;;13.30;99.90;;;;;;5052741;28;20068;-77
2023/01/02 00:17:01;;;;;;;17.85;7.10;;;13.20;99.90;;;;;;5052910;28;20461;-77
2023/01/02 00:19:26;;;;;;;19.90;5.60;;;13.30;99.90;;;;;;5048546;28;20051;-77
2023/01/02 00:21:52;;;;;;;16.98;5.25;;;13.30;99.90;;;;;;5051176;28;20052;-77
2023/01/02 00:24:18;;;;;;;16.45;5.45;;;13.20;99.90;;;;;;5051475;28;20522;-77
2023/01/02 00:26:43;;;;;;;17.98;5.32;;;13.20;99.90;;;;;;5052557;28;20070;-77
2023/01/02 00:29:09;;;;;;;9.80;4.50;;;13.20;99.90;;;;;;5052597;28;20782;-77
2023/01/02 00:31:35;;;;;;;12.80;4.97;;;13.20;99.90;;;;;;5052514;28;20025;-77
2023/01/02 00:34:00;;;;;;;10.88;4.80;;;13.20;99.90;;;;;;5052421;28;20033;-77
2023/01/02 00:36:26;;;;;;;15.50;5.05;;;13.20;99.90;;;;;;5054483;28;20444;-77
2023/01/02 00:38:56;;;;;;;15.90;5.47;;;13.30;99.90;;;;;;5067572;28;20074;-77
2023/01/02 00:41:22;;;;;;;14.98;5.40;;;13.30;99.90;;;;;;5052465;28;20551;-77
2023/01/02 00:43:48;;;;;;;11.10;5.10;;;13.20;99.90;;;;;;5052529;28;20047;-77
2023/01/02 00:46:14;;;;;;;14.05;5.03;;;13.20;99.90;;;;;;5052389;28;20029;-77
2023/01/02 00:48:40;;;;;;;24.30;5.70;;;13.20;99.90;;;;;;5052517;28;20025;-77
2023/01/02 00:51:07;;;;;;;16.55;5.85;;;13.20;99.90;;;;;;5052238;28;20024;-77
2023/01/02 00:53:32;;;;;;;14.55;5.70;;;13.20;99.90;;;;;;5052097;28;20104;-77
2023/01/02 00:55:58;;;;;;;14.73;4.95;;;13.30;99.90;;;;;;5051967;28;20107;-77
2023/01/02 00:58:24;;;;;;;16.45;4.68;;;13.20;99.90;;;;;;5052473;28;20021;-77
2023/01/02 01:00:50;;;;;;;14.60;4.82;;;13.20;99.90;;;;;;5050814;28;20029;-77
2023/01/02 01:03:15;;;;;;;18.55;5.45;;;13.20;99.90;;;;;;5051730;28;20569;-77
2023/01/02 01:05:41;;;;;;;14.63;4.95;;;13.20;99.90;;;;;;5045752;28;20124;-77
2023/01/02 01:08:07;;;;;;;16.25;5.60;;;13.20;99.90;;;;;;5042881;28;20033;-77
2023/01/02 01:10:35;;;;;;;14.75;5.22;;;13.20;99.90;;;;;;5051716;28;20079;-77
2023/01/02 01:13:01;;;;;;;13.82;5.00;;;13.10;99.90;;;;;;5051560;28;20120;-77
2023/01/02 01:15:26;;;;;;;11.73;5.35;;;13.10;99.90;;;;;;5051943;28;20108;-77
2023/01/02 01:17:52;;;;;;;15.57;5.97;;;13.20;99.90;;;;;;5052039;28;20009;-77
2023/01/02 01:20:18;;;;;;;14.10;4.80;;;13.20;99.90;;;;;;5051955;28;20372;-77
2023/01/02 01:22:43;;;;;;;14.98;5.07;;;13.20;99.90;;;;;;5051533;28;20490;-77
2023/01/02 01:25:09;;;;;;;17.17;5.60;;;13.20;99.90;;;;;;5051292;28;20100;-77
2023/01/02 01:27:35;;;;;;;18.27;5.82;;;13.20;99.90;;;;;;5052085;28;20425;-77
2023/01/02 01:30:01;;;;;;;14.35;4.95;;;13.20;99.90;;;;;;5051320;28;20449;-77
2023/01/02 01:32:28;;;;;;;16.95;5.10;;;13.30;99.90;;;;;;5039332;28;20041;-77
2023/01/02 01:34:54;;;;;;;12.88;4.15;;;13.40;99.90;;;;;;5049146;28;20013;-77
2023/01/02 01:37:19;;;;;;;14.73;4.53;;;13.30;99.90;;;;;;5051176;28;20022;-77
2023/01/02 01:39:45;;;;;;;15.65;5.47;;;13.20;99.90;;;;;;5051135;28;20467;-77
2023/01/02 01:42:14;;;;;;;16.27;4.43;;;13.10;99.90;;;;;;5050804;28;20051;-77
2023/01/02 01:44:52;;;;;;;10.68;4.72;;;13.20;99.90;;;;;;5051516;28;20029;-77
2023/01/02 01:47:23;;;;;;;9.82;4.43;;;13.30;99.90;;;;;;5049852;28;20024;-77
2023/01/02 01:49:51;;;;;;;;;;;13.20;99.90;;;;;;5031401;28;20048;-77
2023/01/02 01:52:22;;;;;;;13.10;4.47;;;13.20;99.90;;;;;;5046128;28;20453;-77
2023/01/02 01:55:15;;;;;;;10.95;4.60;;;13.20;99.90;;;;;;5030787;28;20025;-77
2023/01/02 01:58:06;;;;;;;9.80;4.32;;;13.10;99.90;;;;;;5039828;28;20024;-77
2023/01/02 02:00:32;;;;;;;11.40;3.45;;;13.10;99.90;;;;;;5048088;28;20064;-77
2023/01/02 02:03:05;;;;;;;5.35;3.78;;;13.10;99.90;;;;;;5048225;28;20545;-77
2023/01/02 02:05:32;;;;;;;7.82;3.85;;;13.10;99.90;;;;;;5031692;28;20132;-77
2023/01/02 02:08:07;;;;;;;9.45;4.25;;;13.10;99.90;;;;;;5038418;28;20021;-77
2023/01/02 02:10:33;;;;;;;12.18;5.22;;;13.10;99.90;;;;;;5066674;28;20032;-77
2023/01/02 02:12:58;;;;;;;7.50;3.55;;;13.20;99.90;;;;;;5050267;28;20040;-77
2023/01/02 02:15:46;;;;;;;12.90;4.30;;;13.10;99.90;;;;;;5050242;28;20647;-77
2023/01/02 02:18:31;;;;;;;12.70;4.15;;;13.20;99.90;;;;;;5041413;28;20041;-77
2023/01/02 02:21:18;;;;;;;9.68;4.55;;;13.10;99.90;;;;;;5038329;28;20076;-77
2023/01/02 02:24:22;;;;;;;9.32;4.28;;;13.10;99.90;;;;;;5054620;28;20066;-77
2023/01/02 02:27:16;;;;;;;9.13;4.15;;;13.20;99.90;;;;;;5054679;28;20131;-77
2023/01/02 02:30:09;;;;;;;12.60;4.30;;;13.10;99.90;;;;;;5054969;28;20128;-77
2023/01/02 02:32:40;;;;;;;9.75;4.07;;;13.20;99.90;;;;;;5039085;28;20025;-77
2023/01/02 02:35:41;;;;;;;11.05;3.75;;;13.10;99.90;;;;;;5062019;28;20017;-77
2023/01/02 02:38:28;;;;;;;10.48;3.85;;;13.10;99.90;;;;;;5052547;28;20029;-77
2023/01/02 02:41:08;;;;;;;12.35;4.13;;;13.00;99.90;;;;;;5045960;28;20522;-77
2023/01/02 02:44:12;;;;;;;7.22;3.28;;;13.00;99.90;;;;;;5050818;28;20029;-77
2023/01/02 02:46:47;;;;;;;6.80;3.53;;;13.10;99.90;;;;;;4985797;28;20118;-77
2023/01/02 02:49:33;;;;;;;12.70;4.05;;;13.10;99.90;;;;;;4984377;28;20148;-77
2023/01/02 02:52:28;;;;;;;11.05;4.25;;;13.00;99.90;;;;;;4988366;28;20039;-77
2023/01/02 02:55:13;;;;;;;10.57;3.47;;;13.00;99.90;;;;;;4989253;28;20026;-77
2023/01/02 02:57:41;;;;;;;8.80;3.75;;;13.00;99.90;;;;;;4988951;28;20026;-77
2023/01/02 03:00:11;;;;;;;13.68;4.78;;;13.00;99.90;;;;;;4988948;28;20500;-77
2023/01/02 03:02:37;;;;;;;13.27;4.45;;;13.00;99.90;;;;;;4988969;28;20042;-77
2023/01/02 03:05:07;;;;;;;8.63;3.92;;;13.10;99.90;;;;;;4988853;28;20460;-77
2023/01/02 03:08:04;;;;;;;11.00;4.43;;;13.00;99.90;;;;;;4972519;28;20030;-77
2023/01/02 03:10:42;;;;;;;16.13;4.28;;;13.00;99.90;;;;;;4988840;28;20147;-77
2023/01/02 03:13:23;;;;;;;9.95;3.75;;;13.00;99.90;;;;;;4971362;28;20031;-77
2023/01/02 03:16:17;;;;;;;8.70;3.90;;;13.10;99.90;;;;;;4980607;28;20039;-77
2023/01/02 03:19:09;;;;;;;9.43;3.95;;;13.00;99.90;;;;;;4971970;28;20039;-77
2023/01/02 03:21:55;;;;;;;8.80;3.67;;;12.90;99.90;;;;;;5005262;28;20037;-77
2023/01/02 03:24:23;;;;;;;7.38;3.65;;;12.90;99.90;;;;;;5050134;28;20048;-78
2023/01/02 03:26:55;;;;;;;9.05;3.70;;;12.90;99.90;;;;;;5049885;28;20086;-78
2023/01/02 03:29:33;;;;;;;9.98;3.80;;;12.80;99.90;;;;;;5037538;28;20077;-77
2023/01/02 03:32:01;;;;;;;6.22;3.08;;;12.80;99.90;;;;;;5051605;28;20025;-78
2023/01/02 03:34:31;;;;;;;8.20;3.40;;;12.80;99.90;;;;;;5050291;28;20337;-78
2023/01/02 03:37:02;;;;;;;6.57;3.05;;;12.80;99.90;;;;;;5054071;28;20013;-78
2023/01/02 03:39:31;;;;;;;4.82;2.95;;;12.80;99.90;;;;;;5053663;28;20037;-77
2023/01/02 03:42:04;;;;;;;6.43;3.60;;;12.80;99.90;;;;;;5053421;28;20051;-77
2023/01/02 03:44:36;;;;;;;5.75;2.70;;;12.70;99.90;;;;;;5053808;28;20025;-77
2023/01/02 03:47:16;;;;;;;4.15;3.08;;;12.70;99.90;;;;;;5053696;28;20029;-77
2023/01/02 03:49:46;;;;;;;5.88;3.00;;;12.70;99.90;;;;;;5053680;28;20116;-77
2023/01/02 03:52:12;;;;;;;5.55;3.35;;;12.70;99.90;;;;;;5053157;28;20064;-77
2023/01/02 03:54:38;;;;;;;6.97;2.92;;;12.60;99.90;;;;;;5053398;28;20057;-77
2023/01/02 03:57:27;;;;;;;5.97;2.90;;;12.50;99.90;;;;;;5043843;28;20047;-77
2023/01/02 04:00:15;;;;;;;4.68;2.88;;;12.40;99.90;;;;;;5043709;28;20100;-77
2023/01/02 04:02:47;;;;;;;6.55;2.90;;;12.40;99.90;;;;;;5039751;28;20020;-77
2023/01/02 04:05:50;;;;;;;3.70;2.90;;;12.30;99.90;;;;;;5034254;28;20088;-77
2023/01/02 04:08:29;;;;;;;3.85;2.70;;;12.20;99.90;;;;;;5053150;28;20074;-77
2023/01/02 04:10:58;;;;;;;6.82;2.88;;;12.20;99.90;;;;;;5040809;28;20060;-77
2023/01/02 04:13:36;;;;;;;5.28;2.53;;;12.10;99.90;;;;;;5049544;28;20025;-77
2023/01/02 04:16:06;;;;;;;5.57;2.78;;;12.10;99.90;;;;;;5052890;28;20017;-77
2023/01/02 04:18:39;;;;;;;4.25;2.97;;;12.10;99.90;;;;;;5048358;28;20022;-77
2023/01/02 04:21:10;;;;;;;7.15;2.72;;;12.00;99.90;;;;;;5043266;28;20064;-77
2023/01/02 04:24:05;;;;;;;3.85;2.28;;;12.10;99.90;;;;;;5053016;28;20021;-77
2023/01/02 04:26:35;;;;;;;6.25;2.80;;;12.10;99.90;;;;;;5033116;28;20040;-77
2023/01/02 04:29:02;;;;;;;4.00;2.60;;;12.00;99.90;;;;;;5043516;28;20056;-77
2023/01/02 04:31:45;;;;;;;3.85;2.53;;;12.10;99.90;;;;;;5047733;28;20040;-77
2023/01/02 04:34:14;;;;;;;3.90;2.60;;;12.20;99.90;;;;;;5052861;28;20025;-77
2023/01/02 04:36:41;;;;;;;4.97;2.72;;;12.20;99.90;;;;;;5052750;28;20025;-77
2023/01/02 04:39:07;;;;;;;5.85;2.53;;;12.30;99.90;;;;;;5052704;28;20013;-77
2023/01/02 04:41:35;;;;;;;3.92;2.47;;;12.30;99.90;;;;;;5051724;28;20029;-77
2023/01/02 04:44:01;;;;;;;3.53;2.67;;;12.30;99.90;;;;;;5051726;28;20024;-77
2023/01/02 04:46:28;;;;;;;4.85;2.85;;;12.20;99.90;;;;;;5052343;28;20110;-77
2023/01/02 04:48:54;;;;;;;3.38;2.60;;;12.20;99.90;;;;;;5051010;28;20025;-77
2023/01/02 04:51:21;;;;;;;5.30;2.78;;;12.10;99.90;;;;;;5033015;28;20021;-77
2023/01/02 04:53:48;;;;;;;4.40;2.65;;;12.10;99.90;;;;;;5045392;28;20024;-77
2023/01/02 04:56:14;;;;;;;4.20;2.28;;;12.10;99.90;;;;;;5052107;28;20415;-77
2023/01/02 04:58:40;;;;;;;4.65;2.60;;;12.10;99.90;;;;;;5052055;28;20491;-77
2023/01/02 05:01:10;;;;;;;6.45;2.70;;;12.20;99.90;;;;;;5051953;28;20056;-77
2023/01/02 05:03:40;;;;;;;3.97;2.50;;;12.20;99.90;;;;;;5051886;28;20029;-77
2023/01/02 05:06:06;;;;;;;4.53;2.20;;;12.10;99.90;;;;;;5050725;28;20094;-76
2023/01/02 05:08:32;;;;;;;4.65;2.40;;;12.10;99.90;;;;;;5038942;28;20025;-76
2023/01/02 05:11:05;;;;;;;7.35;2.65;;;12.20;99.90;;;;;;5052028;28;20099;-77
2023/01/02 05:13:31;;;;;;;4.10;2.70;;;12.10;99.90;;;;;;5048425;28;20025;-77
2023/01/02 05:15:56;;;;;;;5.20;2.53;;;12.10;99.90;;;;;;5051736;28;20109;-77
2023/01/02 05:18:22;;;;;;;5.43;3.05;;;12.10;99.90;;;;;;5052015;28;20547;-77
2023/01/02 05:20:48;;;;;;;4.30;2.42;;;12.20;99.90;;;;;;5051832;28;20395;-77
2023/01/02 05:25:58;;;;;;;5.00;3.40;;;12.00;99.90;;;;;;5051873;28;20040;-77
2023/01/02 05:28:24;;;;;;;4.72;3.00;;;12.00;99.90;;;;;;5051489;28;20045;-77
2023/01/02 05:30:50;;;;;;;4.07;2.53;;;12.10;99.90;;;;;;5051717;28;20491;-77
2023/01/02 05:33:15;;;;;;;5.03;2.60;;;12.10;99.90;;;;;;5051181;28;20029;-77
2023/01/02 05:35:41;;;;;;;5.00;3.05;;;12.10;99.90;;;;;;5051869;28;20032;-77
2023/01/02 05:38:06;;;;;;;5.22;2.75;;;12.20;99.90;;;;;;5051335;28;20584;-77
2023/01/02 05:40:32;;;;;;;4.50;2.58;;;12.20;99.90;;;;;;5046807;28;20025;-76
2023/01/02 05:42:58;;;;;;;4.63;2.97;;;12.30;99.90;;;;;;5047160;28;20025;-77
2023/01/02 05:45:25;;;;;;;5.38;2.90;;;12.30;99.90;;;;;;5066809;28;20407;-77
2023/01/02 05:47:51;;;;;;;6.63;3.20;;;12.40;99.90;;;;;;5049958;28;20437;-77
2023/01/02 05:50:17;;;;;;;6.80;3.38;;;12.30;99.90;;;;;;5051173;28;20593;-77
2023/01/02 05:52:42;;;;;;;6.07;3.38;;;12.30;99.90;;;;;;5051027;28;20104;-77
2023/01/02 05:55:08;;;;;;;5.20;2.80;;;12.30;99.90;;;;;;5049454;28;20029;-77
2023/01/02 05:57:34;;;;;;;3.85;3.22;;;12.30;99.90;;;;;;5053181;28;20021;-77
2023/01/02 06:00:00;;;;;;;5.50;3.28;;;12.30;99.90;;;;;;5050930;28;20079;-77
2023/01/02 06:02:26;;;;;;;4.47;2.90;;;12.30;99.90;;;;;;5046410;28;20049;-77
2023/01/02 06:04:51;;;;;;;4.45;2.90;;;12.30;99.90;;;;;;5063346;28;20503;-76
2023/01/02 06:07:17;;;;;;;7.40;3.40;;;12.30;99.90;;;;;;5050897;28;20039;-77
2023/01/02 06:09:43;;;;;;;5.18;3.35;;;12.40;99.90;;;;;;5051224;28;20108;-77
2023/01/02 06:12:09;;;;;;;7.75;2.90;;;12.30;99.90;;;;;;5050676;28;20445;-76
2023/01/02 06:14:34;;;;;;;5.07;3.08;;;12.30;99.90;;;;;;5050606;28;20048;-77
2023/01/02 06:17:00;;;;;;;6.78;3.00;;;12.30;99.90;;;;;;5037704;28;20510;-77
2023/01/02 06:19:25;;;;;;;5.57;2.95;;;12.30;99.90;;;;;;5066401;28;20029;-76
2023/01/02 06:21:51;;;;;;;4.80;3.03;;;12.20;99.90;;;;;;5049914;28;20017;-77
2023/01/02 06:24:17;;;;;;;4.97;2.88;;;12.20;99.90;;;;;;5050965;28;20522;-77
2023/01/02 06:26:43;;;;;;;3.83;3.00;;;12.20;99.90;;;;;;5050467;28;20193;-77
2023/01/02 06:29:09;;;;;;;4.32;2.72;;;12.20;99.90;;;;;;5050687;28;20049;-77
2023/01/02 06:31:35;;;;;;;4.07;2.83;;;12.20;99.90;;;;;;5050654;28;20099;-77
2023/01/02 06:34:02;;;;;;;4.88;3.00;;;12.20;99.90;;;;;;5038555;28;20030;-77
2023/01/02 06:36:30;;;;;;;4.22;2.97;;;12.20;99.90;;;;;;5047280;28;20495;-76
2023/01/02 06:38:56;;;;;;;4.13;2.63;;;12.10;99.90;;;;;;5049381;28;20035;-77
2023/01/02 06:41:22;;;;;;;6.38;3.17;;;12.10;99.90;;;;;;5050449;28;20029;-76
2023/01/02 06:43:49;;;;;;;3.50;2.58;;;12.10;99.90;;;;;;5050413;28;20032;-76
2023/01/02 06:46:17;;;;;;;6.28;3.53;;;12.10;99.90;;;;;;5050399;28;20048;-76
2023/01/02 06:48:43;;;;;;;4.93;3.60;;;12.10;99.90;;;;;;5038474;28;20029;-77
2023/01/02 06:51:15;;;;;;;5.43;3.28;;;12.10;99.90;;;;;;5049231;28;20079;-76
2023/01/02 06:53:42;;;;;;;6.55;3.20;;;12.10;99.90;;;;;;5050341;28;20037;-76
2023/01/02 06:56:10;;;;;;;5.60;2.90;;;12.10;99.90;;;;;;5050015;28;20030;-77
2023/01/02 06:58:37;;;;;;;3.72;2.80;;;12.10;99.90;;;;;;5048741;28;20040;-77
2023/01/02 07:01:08;;;;;;;4.60;3.00;;;12.10;99.90;;;;;;5050066;28;20104;-76
2023/01/02 07:03:35;;;;;;;5.43;3.17;;;12.10;99.90;;;;;;5050467;28;20059;-76
2023/01/02 07:06:02;;;;;;;4.75;2.67;;;12.10;99.90;;;;;;5050430;28;20515;-77
2023/01/02 07:08:29;;;;;;;3.78;3.03;;;12.10;99.90;;;;;;5041133;28;20025;-77
2023/01/02 07:10:55;;;;;;;4.70;3.00;;;12.10;99.90;;;;;;5054108;28;20024;-77
2023/01/02 07:13:20;;;;;;;4.90;3.20;;;12.10;99.90;;;;;;5049434;28;20411;-77
2023/01/02 07:15:46;;;;;;;5.28;3.13;;;12.10;99.90;;;;;;5042112;28;20053;-76
2023/01/02 07:18:12;;;;;;;6.50;3.22;;;12.10;99.90;;;;;;5053873;28;20021;-76
2023/01/02 07:20:37;;;;;;;4.38;3.25;;;12.10;99.90;;;;;;5052492;28;20502;-77
2023/01/02 07:23:03;;;;;;;5.78;3.15;;;12.10;99.90;;;;;;5050727;28;20033;-76
2023/01/02 07:25:28;;;;;;;6.75;3.58;;;12.10;99.90;;;;;;5050228;28;20021;-76
2023/01/02 07:27:54;;;;;;;5.50;3.33;;;12.10;99.90;;;;;;5050522;28;20033;-76
2023/01/02 07:30:20;;;;;;;6.50;3.10;;;12.10;99.90;;;;;;5051070;28;20043;-77
2023/01/02 07:32:45;;;;;;;5.20;3.50;;;12.00;99.90;;;;;;5038897;28;20037;-77
2023/01/02 07:35:11;;;;;;;4.47;3.35;;;12.10;99.90;;;;;;5053728;28;20501;-76
2023/01/02 07:37:37;;;;;;;5.60;4.03;;;12.10;99.90;;;;;;5042685;28;20577;-76
2023/01/02 07:40:03;;;;;;;4.28;3.58;;;12.10;99.90;;;;;;5053079;28;20017;-75
2023/01/02 07:42:28;;;;;;;4.30;3.40;;;12.00;99.90;;;;;;5053588;28;20104;-76
2023/01/02 07:44:54;;;;;;;3.85;3.38;;;12.00;99.90;;;;;;5051869;28;20031;-76
2023/01/02 07:47:19;;;;;;;6.22;3.92;;;12.00;99.90;;;;;;5050116;28;20030;-76
2023/01/02 07:49:45;;;;;;;7.22;4.22;;;11.90;99.90;;;;;;5053084;28;20475;-76
2023/01/02 07:52:11;;;;;;;7.07;3.72;;;11.90;99.90;;;;;;5052903;28;20029;-76
2023/01/02 07:54:37;;;;;;;5.93;4.00;;;11.90;99.90;;;;;;5044313;28;20056;-76
2023/01/02 07:57:03;;;;;;;5.50;4.20;;;11.90;99.90;;;;;;5064000;28;20549;-76
2023/01/02 07:59:29;;;;;;;7.25;4.20;;;12.00;99.90;;;;;;5050589;28;20048;-76
2023/01/02 08:01:55;;;;;;;6.40;3.72;;;12.00;99.90;;;;;;5050848;28;20435;-76
2023/01/02 08:04:20;;;;;;;5.68;3.92;;;11.90;99.90;;;;;;5044008;28;20063;-76
2023/01/02 08:06:46;;;;;;;5.03;4.03;;;11.90;99.90;;;;;;5044709;28;20039;-75
2023/01/02 08:09:12;;;;;;;5.80;3.80;;;11.90;99.90;;;;;;5043241;28;20056;-76
2023/01/02 08:11:37;;;;;;;8.18;4.22;;;11.80;99.90;;;;;;5044695;28;20558;-76
2023/01/02 08:14:04;;;;;;;5.72;4.15;;;11.90;99.90;;;;;;5050933;28;20071;-76
2023/01/02 08:16:29;;;;;;;7.65;4.40;;;11.90;99.90;;;;;;5050223;28;20517;-76
2023/01/02 08:18:55;;;;;;;7.13;4.10;;;11.90;99.90;;;;;;5049453;28;20025;-76
2023/01/02 08:21:22;;;;;;;9.07;4.45;;;11.90;99.90;;;;;;5051125;28;20021;-76
2023/01/02 08:23:48;;;;;;;9.85;4.60;;;12.00;99.90;;;;;;5050095;28;20056;-76
2023/01/02 08:26:14;;;;;;;7.80;4.28;;;11.90;99.90;;;;;;5050765;28;20465;-76
2023/01/02 08:28:40;;;;;;;8.90;4.60;;;12.00;99.90;;;;;;5050041;28;20511;-76
2023/01/02 08:31:16;;;;;;;11.65;5.10;;;12.10;99.90;;;;;;5050073;28;20040;-76
2023/01/02 08:33:42;;;;;;;14.13;5.20;;;12.10;99.90;;;;;;5045770;28;20033;-76
2023/01/02 08:36:08;;;;;;;12.27;5.32;;;12.10;99.90;;;;;;5044474;28;20028;-76
2023/01/02 08:38:34;;;;;;;16.80;5.65;;;12.20;99.90;;;;;;5050727;28;20049;-76
2023/01/02 08:41:00;;;;;;;10.82;5.30;;;12.20;99.90;;;;;;5046574;28;20060;-75
2023/01/02 08:43:26;;;;;;;16.98;6.10;;;12.20;99.90;;;;;;5049862;28;20035;-76
2023/01/02 08:45:53;;;;;;;11.55;5.22;;;12.20;99.90;;;;;;5049644;28;20550;-76
2023/01/02 08:48:19;;;;;;;7.93;4.72;;;12.20;99.90;;;;;;5046018;28;20045;-76
2023/01/02 08:50:45;;;;;;;7.70;4.43;;;12.20;99.90;;;;;;5048663;28;20147;-75
2023/01/02 08:53:10;;;;;;;7.35;4.28;;;12.20;99.90;;;;;;5041947;28;20080;-76
2023/01/02 08:55:36;;;;;;;6.88;4.25;;;12.20;99.90;;;;;;5029843;28;20570;-75
2023/01/02 08:58:02;;;;;;;7.57;4.30;;;12.20;99.90;;;;;;5041287;28;20033;-76
2023/01/02 09:00:27;;;;;;;6.60;4.15;;;12.20;99.90;;;;;;5049312;28;20021;-76
2023/01/02 09:02:53;;;;;;;8.25;3.55;;;12.20;99.90;;;;;;5050156;28;20057;-76
2023/01/02 09:05:19;;;;;;;8.70;3.90;;;12.20;99.90;;;;;;5034525;28;20029;-76
2023/01/02 09:07:44;;;;;;;7.93;3.92;;;12.30;99.90;;;;;;5029770;28;20441;-76
2023/01/02 09:10:10;;;;;;;6.95;3.67;;;12.30;99.90;;;;;;5040911;28;20167;-76
2023/01/02 09:12:36;;;;;;;7.72;3.75;;;12.40;99.90;;;;;;5049864;28;20075;-76
2023/01/02 09:15:03;;;;;;;5.47;3.25;;;12.40;99.90;;;;;;5049797;28;20028;-76
2023/01/02 09:17:28;;;;;;;8.13;4.00;;;12.40;99.90;;;;;;5044970;28;20064;-76
2023/01/02 09:19:54;;;;;;;5.10;3.22;;;12.50;99.90;;;;;;5042457;28;20021;-76
2023/01/02 09:22:20;;;;;;;5.80;3.53;;;12.60;99.90;;;;;;5049287;28;20024;-76
2023/01/02 09:24:45;;;;;;;8.30;3.30;;;12.70;99.90;;;;;;5049396;28;20066;-76
2023/01/02 09:27:11;;;;;;;6.32;3.22;;;12.70;99.90;;;;;;5049212;28;20059;-76
2023/01/02 09:29:37;;;;;;;5.75;3.00;;;12.80;99.90;;;;;;5048678;28;20049;-76
2023/01/02 09:32:03;;;;;;;7.68;3.40;;;12.90;99.90;;;;;;5049087;28;20509;-75
2023/01/02 09:34:28;;;;;;;5.70;3.17;;;13.00;99.90;;;;;;5048328;28;20106;-75
2023/01/02 09:36:54;;;;;;;9.57;3.80;;;13.00;99.90;;;;;;5048252;28;20541;-75
2023/01/02 09:39:19;;;;;;;7.78;3.25;;;13.00;99.90;;;;;;5049014;28;20025;-74
2023/01/02 09:41:49;;;;;;;8.15;3.45;;;13.00;99.90;;;;;;5048512;28;20032;-75
2023/01/02 09:44:24;;;;;;;7.38;3.35;;;13.10;99.90;;;;;;5034610;28;20030;-75
2023/01/02 09:47:02;;;;;;;5.05;3.95;;;13.10;99.90;;;;;;5029192;28;20033;-75
2023/01/02 09:49:49;;;;;;;6.25;3.47;;;13.10;99.90;;;;;;5028297;28;20112;-75
2023/01/02 09:52:26;;;;;;;6.75;3.58;;;13.10;99.90;;;;;;5038057;28;20029;-74
2023/01/02 09:54:52;;;;;;;7.80;3.67;;;13.10;99.90;;;;;;5048426;28;20028;-75
2023/01/02 09:57:30;;;;;;;7.63;3.65;;;13.10;99.90;;;;;;5047445;28;20013;-75
2023/01/02 10:00:12;;;;;;;7.82;3.58;;;13.10;99.90;;;;;;5047772;28;20104;-75
2023/01/02 10:03:11;;;;;;;9.40;3.78;;;13.10;99.90;;;;;;5048325;28;20083;-75
2023/01/02 10:05:39;;;;;;;8.73;3.53;;;13.10;99.90;;;;;;5057527;28;20274;-75
2023/01/02 10:08:28;;;;;;;8.02;4.15;;;13.10;99.90;;;;;;5037880;28;20029;-75
2023/01/02 10:11:16;;;;;;;10.05;3.67;;;13.10;99.90;;;;;;5035017;28;20115;-75
2023/01/02 10:14:05;;;;;;;6.97;3.55;;;13.00;99.90;;;;;;5047580;28;20025;-75
2023/01/02 10:16:36;;;;;;;5.15;3.30;;;13.00;99.90;;;;;;5048375;28;20031;-75
2023/01/02 10:19:08;;;;;;;7.03;3.05;;;13.00;99.90;;;;;;5048329;28;20042;-75
2023/01/02 10:21:38;;;;;;;6.15;2.80;;;13.00;99.90;;;;;;5048660;28;20130;-75
2023/01/02 10:24:12;;;;;;;8.80;3.28;;;13.00;99.90;;;;;;5047973;28;20043;-75
2023/01/02 10:26:43;;;;;;;4.65;3.17;;;13.00;99.90;;;;;;5048294;28;20045;-75
2023/01/02 10:29:29;;;;;;;5.43;3.00;;;13.00;99.90;;;;;;5038862;28;20049;-75
2023/01/02 10:31:59;;;;;;;5.30;3.17;;;13.00;99.90;;;;;;5046611;28;20037;-75
2023/01/02 10:34:49;;;;;;;4.03;2.70;;;13.00;99.90;;;;;;5047565;28;20025;-75
2023/01/02 10:37:16;;;;;;;9.52;2.80;;;13.00;99.90;;;;;;4997350;28;20049;-75
2023/01/02 10:39:45;;;;;;;8.77;3.17;;;13.00;99.90;;;;;;5009465;28;20106;-75
2023/01/02 10:42:13;;;;;;;5.07;2.58;;;13.00;99.90;;;;;;5009052;28;20049;-75
2023/01/02 10:44:40;;;;;;;7.28;2.67;;;13.00;99.90;;;;;;5009504;28;20523;-74
2023/01/02 10:47:19;;;;;;;4.55;2.33;;;13.00;99.90;;;;;;5009091;28;20041;-74
2023/01/02 10:49:46;;;;;;;6.80;2.88;;;12.90;99.90;;;;;;5009938;28;20612;-75
2023/01/02 10:52:18;;;;;;;3.55;2.28;;;12.90;99.90;;;;;;5009562;28;20030;-75
2023/01/02 10:54:55;;;;;;;4.72;2.47;;;12.80;99.90;;;;;;4992162;28;20052;-74
2023/01/02 10:57:42;;;;;;;5.07;2.55;;;12.80;99.90;;;;;;5009996;28;20018;-74
2023/01/02 11:00:16;;;;;;;5.18;2.58;;;12.70;99.90;;;;;;4992392;28;20466;-74
2023/01/02 11:02:48;;;;;;;4.38;2.60;;;12.70;99.90;;;;;;5009529;28;20026;-74
2023/01/02 11:05:23;;;;;;;2.78;2.25;;;12.70;99.90;;;;;;5009222;28;20045;-74
2023/01/02 11:07:50;;;;;;;4.40;2.30;;;12.60;99.90;;;;;;5009684;28;20316;-75
2023/01/02 11:10:37;;;;;;;8.85;2.80;;;12.60;99.90;;;;;;5009211;28;20024;-75
2023/01/02 11:13:08;;;;;;;4.40;2.85;;;12.60;99.90;;;;;;5009274;28;20026;-75
2023/01/02 11:15:42;;;;;;;6.18;2.85;;;12.60;99.90;;;;;;5047875;28;20095;-75
2023/01/02 11:18:16;;;;;;;5.25;2.65;;;12.60;99.90;;;;;;5051749;28;20079;-75
2023/01/02 11:20:49;;;;;;;3.40;1.92;;;12.60;99.90;;;;;;5051763;28;20029;-75
2023/01/02 11:23:15;;;;;;;6.82;2.58;;;12.50;99.90;;;;;;5048027;28;20387;-75
2023/01/02 11:25:42;;;;;;;3.53;2.22;;;12.50;99.90;;;;;;5050996;28;20032;-75
2023/01/02 11:28:19;;;;;;;2.90;2.33;;;12.50;99.90;;;;;;5052706;28;20333;-75
2023/01/02 11:31:00;;;;;;;2.70;1.83;;;12.40;99.90;;;;;;5051580;28;20032;-75
2023/01/02 11:33:28;;;;;;;3.00;2.42;;;12.40;99.90;;;;;;5052991;28;20029;-75
2023/01/02 11:35:55;;;;;;;2.40;2.03;;;12.50;99.90;;;;;;5052440;28;20025;-75
2023/01/02 11:38:23;;;;;;;5.40;2.00;;;12.50;99.90;;;;;;5052368;28;20522;-75
2023/01/02 11:40:56;;;;;;;3.33;2.35;;;12.40;99.90;;;;;;5052469;28;20074;-75
2023/01/02 11:43:47;;;;;;;2.67;1.83;;;12.50;99.90;;;;;;5038748;28;20021;-75
2023/01/02 11:46:30;;;;;;;3.60;1.85;;;12.40;99.90;;;;;;5052226;28;20115;-75
2023/01/02 11:49:06;;;;;;;3.25;2.25;;;12.40;99.90;;;;;;5052539;28;20054;-75
2023/01/02 11:51:37;;;;;;;3.28;2.13;;;12.40;99.90;;;;;;5050520;28;20039;-75
2023/01/02 11:54:10;;;;;;;4.60;2.13;;;12.30;99.90;;;;;;5051801;28;20029;-75
2023/01/02 11:56:40;;;;;;;3.50;2.03;;;12.30;99.90;;;;;;5051977;28;20196;-75
2023/01/02 11:59:23;;;;;;;5.60;2.10;;;12.40;99.90;;;;;;5049743;28;20021;-74
2023/01/02 12:01:52;;;;;;;3.00;1.65;;;12.40;99.90;;;;;;5045035;28;20036;-74
2023/01/02 12:04:18;;;;;;;3.13;2.10;;;12.40;99.90;;;;;;5052211;28;20086;-74
2023/01/02 12:07:02;;;;;;;3.90;1.73;;;12.30;99.90;;;;;;5051897;28;20479;-74
2023/01/02 12:09:31;;;;;;;2.42;1.80;;;12.30;99.90;;;;;;5041060;28;20024;-74
2023/01/02 12:12:25;;;;;;;5.93;2.00;;;12.30;99.90;;;;;;5051887;28;20041;-74
2023/01/02 12:15:06;;;;;;;2.45;1.83;;;12.20;99.90;;;;;;5045113;28;20025;-74
2023/01/02 12:17:43;;;;;;;1.67;1.50;;;12.30;99.90;;;;;;5050367;28;20052;-74
2023/01/02 12:20:28;;;;;;;3.47;1.98;;;12.30;99.90;;;;;;5051762;28;20025;-75
2023/01/02 12:23:12;;;;;;;3.08;1.60;;;12.30;99.90;;;;;;5051982;28;20055;-75
2023/01/02 12:25:58;;;;;;;3.13;1.88;;;12.20;99.90;;;;;;5055354;28;20047;-74
2023/01/02 12:28:42;;;;;;;1.48;1.33;;;12.20;99.90;;;;;;5050680;28;20093;-75
2023/01/02 12:31:10;;;;;;;4.97;1.65;;;12.30;99.90;;;;;;5051412;28;20032;-74
2023/01/02 12:33:48;;;;;;;2.60;1.90;;;12.30;99.90;;;;;;5050423;28;20494;-75
2023/01/02 12:36:43;;;;;;;1.83;1.67;;;12.30;99.90;;;;;;5050198;28;20047;-75
2023/01/02 12:39:18;;;;;;;2.92;1.83;;;12.30;99.90;;;;;;4970325;28;20082;-74
2023/01/02 12:42:17;;;;;;;2.28;2.08;;;12.20;99.90;;;;;;4970131;28;20193;-74
2023/01/02 12:44:52;;;;;;;4.95;4.00;;;12.20;99.90;;;;;;4969628;28;20207;-75
2023/01/02 12:47:39;;;;;;;6.03;3.65;;;12.20;99.90;;;;;;4969231;28;20070;-74
2023/01/02 12:50:35;;;;;;;5.18;3.90;;;12.20;99.90;;;;;;4966994;28;20042;-74
2023/01/02 12:53:22;;;;;;;5.63;4.03;;;12.30;99.90;;;;;;4942785;28;20030;-75
2023/01/02 12:56:21;;;;;;;5.50;3.80;;;12.10;99.90;;;;;;4965488;28;20135;-75
2023/01/02 12:58:58;;;;;;;4.50;3.40;;;12.10;99.90;;;;;;4939155;28;20537;-75
2023/01/02 13:01:46;;;;;;;3.42;3.00;;;12.10;99.90;;;;;;4959751;28;20118;-75
2023/01/02 13:04:30;;;;;;;5.93;4.35;;;12.10;99.90;;;;;;4956157;28;20042;-75
2023/01/02 13:07:10;;;;;;;6.05;5.00;;;12.00;99.90;;;;;;4968916;28;20205;-75
2023/01/02 13:09:39;;;;;;;6.70;4.95;;;12.10;99.90;;;;;;4969266;28;20050;-74
2023/01/02 13:12:15;;;;;;;4.47;4.07;;;12.10;99.90;;;;;;4952219;28;20039;-75